createdAt,value
2018-04-25T00:00:16.817Z,987.40
2018-04-25T00:01:16.988Z,987.40
2018-04-25T00:02:17.164Z,987.35
2018-04-25T00:03:17.341Z,987.35
2018-04-25T00:04:17.520Z,987.34
2018-04-25T00:05:17.697Z,987.35
2018-04-25T00:06:17.877Z,987.34
2018-04-25T00:07:18.062Z,987.31
2018-04-25T00:08:18.247Z,987.31
2018-04-25T00:09:18.419Z,987.30
2018-04-25T00:10:18.599Z,987.31
2018-04-25T00:11:18.779Z,987.30
2018-04-25T00:12:18.963Z,987.28
2018-04-25T00:13:19.141Z,987.31
2018-04-25T00:14:19.320Z,987.29
2018-04-25T00:15:19.499Z,987.28
2018-04-25T00:16:19.689Z,987.31
2018-04-25T00:17:19.871Z,987.24
2018-04-25T00:18:20.046Z,987.19
2018-04-25T00:19:20.225Z,987.20
2018-04-25T00:20:20.414Z,987.17
2018-04-25T00:21:20.595Z,987.17
2018-04-25T00:22:20.788Z,987.21
2018-04-25T00:23:20.968Z,987.20
2018-04-25T00:24:21.238Z,987.19
2018-04-25T00:25:21.332Z,987.16
2018-04-25T00:26:21.520Z,987.17
2018-04-25T00:27:21.701Z,987.12
2018-04-25T00:28:21.882Z,987.13
2018-04-25T00:29:22.065Z,987.09
2018-04-25T00:30:22.244Z,987.07
2018-04-25T00:31:22.413Z,987.06
2018-04-25T00:32:22.598Z,987.03
2018-04-25T00:33:22.771Z,987.04
2018-04-25T00:34:22.955Z,986.99
2018-04-25T00:35:23.135Z,986.99
2018-04-25T00:36:23.315Z,987.01
2018-04-25T00:37:23.488Z,986.99
2018-04-25T00:38:23.667Z,987.00
2018-04-25T00:39:23.849Z,987.00
2018-04-25T00:40:24.032Z,987.03
2018-04-25T00:41:24.209Z,987.01
2018-04-25T00:42:26.824Z,987.01
2018-04-25T00:43:24.496Z,987.00
2018-04-25T00:44:24.735Z,987.00
2018-04-25T00:45:24.789Z,986.97
2018-04-25T00:46:24.970Z,986.98
2018-04-25T00:47:25.151Z,986.98
2018-04-25T00:48:25.336Z,987.00
2018-04-25T00:49:25.519Z,986.96
2018-04-25T00:50:25.698Z,986.99
2018-04-25T00:51:25.876Z,987.00
2018-04-25T00:52:26.056Z,987.00
2018-04-25T00:53:26.234Z,986.97
2018-04-25T00:54:26.425Z,986.98
2018-04-25T00:55:26.602Z,986.99
2018-04-25T00:56:26.779Z,986.96
2018-04-25T00:57:26.966Z,986.98
2018-04-25T00:58:27.142Z,986.98
2018-04-25T00:59:27.323Z,986.99
2018-04-25T01:00:27.494Z,986.97
2018-04-25T01:01:27.671Z,986.97
2018-04-25T01:02:27.849Z,986.95
2018-04-25T01:03:28.027Z,986.92
2018-04-25T01:04:28.201Z,986.93
2018-04-25T01:05:28.381Z,986.92
2018-04-25T01:06:28.568Z,986.85
2018-04-25T01:07:28.748Z,986.87
2018-04-25T01:08:28.933Z,986.87
2018-04-25T01:09:29.106Z,986.85
2018-04-25T01:10:29.284Z,986.80
2018-04-25T01:11:29.464Z,986.79
2018-04-25T01:12:29.640Z,986.77
2018-04-25T01:13:29.819Z,986.77
2018-04-25T01:14:29.994Z,986.74
2018-04-25T01:15:30.179Z,986.77
2018-04-25T01:16:30.356Z,986.79
2018-04-25T01:17:30.533Z,986.72
2018-04-25T01:18:30.716Z,986.74
2018-04-25T01:19:30.891Z,986.69
2018-04-25T01:20:31.069Z,986.71
2018-04-25T01:21:31.252Z,986.71
2018-04-25T01:22:31.429Z,986.65
2018-04-25T01:23:31.603Z,986.67
2018-04-25T01:24:31.781Z,986.68
2018-04-25T01:25:31.967Z,986.64
2018-04-25T01:26:32.146Z,986.65
2018-04-25T01:27:32.315Z,986.62
2018-04-25T01:28:32.492Z,986.62
2018-04-25T01:29:32.669Z,986.63
2018-04-25T01:30:32.852Z,986.58
2018-04-25T01:31:33.032Z,986.66
2018-04-25T01:32:33.213Z,986.56
2018-04-25T01:33:33.398Z,986.54
2018-04-25T01:34:33.569Z,986.51
2018-04-25T01:35:33.754Z,986.55
2018-04-25T01:36:33.935Z,986.54
2018-04-25T01:37:34.111Z,986.54
2018-04-25T01:38:34.289Z,986.57
2018-04-25T01:39:34.465Z,986.51
2018-04-25T01:40:34.634Z,986.55
2018-04-25T01:41:34.808Z,986.49
2018-04-25T01:42:34.993Z,986.52
2018-04-25T01:43:35.168Z,986.47
2018-04-25T01:44:35.341Z,986.48
2018-04-25T01:45:35.516Z,986.45
2018-04-25T01:46:35.689Z,986.43
2018-04-25T01:47:35.865Z,986.43
2018-04-25T01:48:36.045Z,986.42
2018-04-25T01:49:36.219Z,986.42
2018-04-25T01:50:36.398Z,986.38
2018-04-25T01:51:36.579Z,986.38
2018-04-25T01:52:36.752Z,986.35
2018-04-25T01:53:36.935Z,986.39
2018-04-25T01:54:37.113Z,986.37
2018-04-25T01:55:37.291Z,986.35
2018-04-25T01:56:37.473Z,986.36
2018-04-25T01:57:37.646Z,986.33
2018-04-25T01:58:37.832Z,986.31
2018-04-25T01:59:38.011Z,986.28
2018-04-25T02:00:38.193Z,986.26
2018-04-25T02:01:38.370Z,986.26
2018-04-25T02:02:38.549Z,986.28
2018-04-25T02:03:38.735Z,986.29
2018-04-25T02:04:38.916Z,986.29
2018-04-25T02:05:39.091Z,986.28
2018-04-25T02:06:39.272Z,986.22
2018-04-25T02:07:39.446Z,986.25
2018-04-25T02:08:39.678Z,986.25
2018-04-25T02:09:39.804Z,986.21
2018-04-25T02:10:39.991Z,986.22
2018-04-25T02:11:40.168Z,986.20
2018-04-25T02:12:40.349Z,986.21
2018-04-25T02:13:40.534Z,986.17
2018-04-25T02:14:40.708Z,986.19
2018-04-25T02:15:40.891Z,986.19
2018-04-25T02:16:41.063Z,986.17
2018-04-25T02:17:41.235Z,986.19
2018-04-25T02:18:41.419Z,986.17
2018-04-25T02:19:41.591Z,986.17
2018-04-25T02:20:41.768Z,986.13
2018-04-25T02:21:41.941Z,986.11
2018-04-25T02:22:42.127Z,986.13
2018-04-25T02:23:42.296Z,986.08
2018-04-25T02:24:42.473Z,986.11
2018-04-25T02:25:42.653Z,986.07
2018-04-25T02:26:42.823Z,986.07
2018-04-25T02:27:42.995Z,986.09
2018-04-25T02:28:43.177Z,986.08
2018-04-25T02:29:43.351Z,986.07
2018-04-25T02:30:43.535Z,986.05
2018-04-25T02:31:43.709Z,986.05
2018-04-25T02:32:43.884Z,986.02
2018-04-25T02:33:44.072Z,986.00
2018-04-25T02:34:44.245Z,985.95
2018-04-25T02:35:44.432Z,985.98
2018-04-25T02:36:44.612Z,985.96
2018-04-25T02:37:44.787Z,985.95
2018-04-25T02:38:44.957Z,985.97
2018-04-25T02:39:45.133Z,985.95
2018-04-25T02:40:45.310Z,985.95
2018-04-25T02:41:45.502Z,985.92
2018-04-25T02:42:45.668Z,985.94
2018-04-25T02:43:45.854Z,985.91
2018-04-25T02:44:46.032Z,985.91
2018-04-25T02:45:46.209Z,985.90
2018-04-25T02:46:46.390Z,985.88
2018-04-25T02:47:46.572Z,985.87
2018-04-25T02:48:46.752Z,985.90
2018-04-25T02:49:46.928Z,985.91
2018-04-25T02:50:47.123Z,985.87
2018-04-25T02:51:47.286Z,985.90
2018-04-25T02:52:47.464Z,985.91
2018-04-25T02:53:47.640Z,985.92
2018-04-25T02:54:47.829Z,985.87
2018-04-25T02:55:48.008Z,985.93
2018-04-25T02:56:48.183Z,985.87
2018-04-25T02:57:48.367Z,985.92
2018-04-25T02:58:48.542Z,985.89
2018-04-25T02:59:48.720Z,985.90
2018-04-25T03:00:48.890Z,985.90
2018-04-25T03:01:49.072Z,985.91
2018-04-25T03:02:49.248Z,985.93
2018-04-25T03:03:49.427Z,985.93
2018-04-25T03:04:49.611Z,985.90
2018-04-25T03:05:49.784Z,985.92
2018-04-25T03:06:49.969Z,985.96
2018-04-25T03:07:50.174Z,985.94
2018-04-25T03:08:50.361Z,985.94
2018-04-25T03:09:50.541Z,985.94
2018-04-25T03:10:50.733Z,985.94
2018-04-25T03:11:50.905Z,985.93
2018-04-25T03:12:51.085Z,985.98
2018-04-25T03:13:51.255Z,985.97
2018-04-25T03:14:51.429Z,985.93
2018-04-25T03:15:51.616Z,985.91
2018-04-25T03:16:51.803Z,985.90
2018-04-25T03:17:51.959Z,985.91
2018-04-25T03:18:52.139Z,985.90
2018-04-25T03:19:52.327Z,985.89
2018-04-25T03:20:52.493Z,985.89
2018-04-25T03:21:52.666Z,985.87
2018-04-25T03:22:52.844Z,985.84
2018-04-25T03:23:53.023Z,985.79
2018-04-25T03:24:53.206Z,985.84
2018-04-25T03:25:53.385Z,985.82
2018-04-25T03:26:53.567Z,985.80
2018-04-25T03:27:53.737Z,985.86
2018-04-25T03:28:53.915Z,985.83
2018-04-25T03:29:54.088Z,985.85
2018-04-25T03:30:54.271Z,985.84
2018-04-25T03:31:54.456Z,985.89
2018-04-25T03:32:54.627Z,985.88
2018-04-25T03:33:54.801Z,985.92
2018-04-25T03:34:54.983Z,985.96
2018-04-25T03:35:55.164Z,985.99
2018-04-25T03:36:55.342Z,985.97
2018-04-25T03:37:55.521Z,985.93
2018-04-25T03:38:55.705Z,985.93
2018-04-25T03:39:55.879Z,985.99
2018-04-25T03:40:56.055Z,985.99
2018-04-25T03:41:56.258Z,986.00
2018-04-25T03:42:56.433Z,986.01
2018-04-25T03:43:56.631Z,986.00
2018-04-25T03:44:56.785Z,986.02
2018-04-25T03:45:56.969Z,985.95
2018-04-25T03:46:57.142Z,985.93
2018-04-25T03:47:57.325Z,985.94
2018-04-25T03:48:57.504Z,985.97
2018-04-25T03:49:57.692Z,985.93
2018-04-25T03:50:57.867Z,985.98
2018-04-25T03:51:58.040Z,985.97
2018-04-25T03:52:58.215Z,985.93
2018-04-25T03:53:58.396Z,985.88
2018-04-25T03:54:58.569Z,985.84
2018-04-25T03:55:58.744Z,985.81
2018-04-25T03:56:58.924Z,985.87
2018-04-25T03:57:59.107Z,985.80
2018-04-25T03:58:59.321Z,985.83
2018-04-25T03:59:59.467Z,985.92
2018-04-25T04:00:59.654Z,985.87
2018-04-25T04:02:00.280Z,985.89
2018-04-25T04:03:00.048Z,985.87
2018-04-25T04:04:00.223Z,985.86
2018-04-25T04:05:03.542Z,985.85
2018-04-25T04:06:00.578Z,985.89
2018-04-25T04:07:00.748Z,985.83
2018-04-25T04:08:00.933Z,985.81
2018-04-25T04:09:01.111Z,985.81
2018-04-25T04:10:01.290Z,985.83
2018-04-25T04:11:01.477Z,985.80
2018-04-25T04:12:01.650Z,985.82
2018-04-25T04:13:01.865Z,985.84
2018-04-25T04:14:02.010Z,985.82
2018-04-25T04:15:02.193Z,985.78
2018-04-25T04:16:02.378Z,985.78
2018-04-25T04:17:02.556Z,985.85
2018-04-25T04:18:02.735Z,985.77
2018-04-25T04:19:02.910Z,985.77
2018-04-25T04:20:03.081Z,985.75
2018-04-25T04:21:03.254Z,985.76
2018-04-25T04:22:03.434Z,985.74
2018-04-25T04:23:03.613Z,985.74
2018-04-25T04:24:03.792Z,985.71
2018-04-25T04:25:03.979Z,985.70
2018-04-25T04:26:04.151Z,985.70
2018-04-25T04:27:04.322Z,985.71
2018-04-25T04:28:04.505Z,985.69
2018-04-25T04:29:04.677Z,985.71
2018-04-25T04:30:04.863Z,985.68
2018-04-25T04:31:05.047Z,985.70
2018-04-25T04:32:05.228Z,985.67
2018-04-25T04:33:05.408Z,985.60
2018-04-25T04:34:05.592Z,985.62
2018-04-25T04:35:05.772Z,985.67
2018-04-25T04:36:05.968Z,985.68
2018-04-25T04:37:06.147Z,985.62
2018-04-25T04:38:06.331Z,985.68
2018-04-25T04:39:06.508Z,985.62
2018-04-25T04:40:06.679Z,985.65
2018-04-25T04:41:06.868Z,985.62
2018-04-25T04:42:07.044Z,985.69
2018-04-25T04:43:07.253Z,985.68
2018-04-25T04:44:07.408Z,985.66
2018-04-25T04:45:07.625Z,985.66
2018-04-25T04:46:07.789Z,985.68
2018-04-25T04:47:07.973Z,985.71
2018-04-25T04:48:08.146Z,985.67
2018-04-25T04:49:08.338Z,985.67
2018-04-25T04:50:08.511Z,985.72
2018-04-25T04:51:08.691Z,985.68
2018-04-25T04:52:08.867Z,985.70
2018-04-25T04:53:09.076Z,985.68
2018-04-25T04:54:09.249Z,985.66
2018-04-25T04:55:09.424Z,985.66
2018-04-25T04:56:09.610Z,985.60
2018-04-25T04:57:09.786Z,985.71
2018-04-25T04:58:09.958Z,985.65
2018-04-25T04:59:10.136Z,985.63
2018-04-25T05:00:10.308Z,985.59
2018-04-25T05:01:10.517Z,985.59
2018-04-25T05:02:10.701Z,985.60
2018-04-25T05:03:10.872Z,985.61
2018-04-25T05:04:11.055Z,985.58
2018-04-25T05:05:11.231Z,985.63
2018-04-25T05:06:11.778Z,985.63
2018-04-25T05:07:11.570Z,985.61
2018-04-25T05:08:11.765Z,985.58
2018-04-25T05:09:11.944Z,985.62
2018-04-25T05:10:12.114Z,985.61
2018-04-25T05:11:12.292Z,985.68
2018-04-25T05:12:12.484Z,985.61
2018-04-25T05:13:12.717Z,985.59
2018-04-25T05:14:12.853Z,985.64
2018-04-25T05:15:13.033Z,985.66
2018-04-25T05:16:13.207Z,985.64
2018-04-25T05:17:13.392Z,985.60
2018-04-25T05:18:13.596Z,985.63
2018-04-25T05:19:13.777Z,985.66
2018-04-25T05:20:13.957Z,985.60
2018-04-25T05:21:14.136Z,985.58
2018-04-25T05:22:14.377Z,985.60
2018-04-25T05:23:14.524Z,985.58
2018-04-25T05:24:15.415Z,985.57
2018-04-25T05:25:17.132Z,985.56
2018-04-25T05:26:15.018Z,985.54
2018-04-25T05:27:15.083Z,985.57
2018-04-25T05:28:15.258Z,985.55
2018-04-25T05:29:15.447Z,985.62
2018-04-25T05:30:15.626Z,985.61
2018-04-25T05:31:15.808Z,985.60
2018-04-25T05:32:16.006Z,985.60
2018-04-25T05:33:16.209Z,985.60
2018-04-25T05:34:16.402Z,985.58
2018-04-25T05:35:16.793Z,985.61
2018-04-25T05:36:16.778Z,985.60
2018-04-25T05:37:16.959Z,985.56
2018-04-25T05:38:17.142Z,985.60
2018-04-25T05:39:17.322Z,985.59
2018-04-25T05:40:17.494Z,985.56
2018-04-25T05:41:17.672Z,985.54
2018-04-25T05:42:17.855Z,985.55
2018-04-25T05:43:18.032Z,985.59
2018-04-25T05:44:18.217Z,985.57
2018-04-25T05:45:18.402Z,985.56
2018-04-25T05:46:18.582Z,985.56
2018-04-25T05:47:18.763Z,985.52
2018-04-25T05:48:18.957Z,985.53
2018-04-25T05:49:19.381Z,985.52
2018-04-25T05:50:19.350Z,985.60
2018-04-25T05:51:19.530Z,985.57
2018-04-25T05:52:19.726Z,985.60
2018-04-25T05:53:19.903Z,985.59
2018-04-25T05:54:20.078Z,985.60
2018-04-25T05:55:20.256Z,985.62
2018-04-25T05:56:20.440Z,985.58
2018-04-25T05:57:20.619Z,985.60
2018-04-25T05:58:20.814Z,985.60
2018-04-25T05:59:20.987Z,985.56
2018-04-25T06:00:21.169Z,985.58
2018-04-25T06:01:21.346Z,985.55
2018-04-25T06:02:21.524Z,985.60
2018-04-25T06:03:21.701Z,985.57
2018-04-25T06:04:21.889Z,985.60
2018-04-25T06:05:22.071Z,985.61
2018-04-25T06:06:22.246Z,985.63
2018-04-25T06:07:22.435Z,985.64
2018-04-25T06:08:22.617Z,985.59
2018-04-25T06:09:22.877Z,985.60
2018-04-25T06:10:22.986Z,985.62
2018-04-25T06:11:23.161Z,985.57
2018-04-25T06:12:23.363Z,985.54
2018-04-25T06:13:23.532Z,985.53
2018-04-25T06:14:23.716Z,985.54
2018-04-25T06:15:23.890Z,985.57
2018-04-25T06:16:24.075Z,985.57
2018-04-25T06:17:24.257Z,985.54
2018-04-25T06:18:24.436Z,985.59
2018-04-25T06:19:24.614Z,985.62
2018-04-25T06:20:24.798Z,985.59
2018-04-25T06:21:24.982Z,985.58
2018-04-25T06:22:25.158Z,985.59
2018-04-25T06:23:25.339Z,985.58
2018-04-25T06:24:25.524Z,985.59
2018-04-25T06:25:25.712Z,985.60
2018-04-25T06:26:25.971Z,985.61
2018-04-25T06:27:26.079Z,985.65
2018-04-25T06:28:26.265Z,985.67
2018-04-25T06:29:26.443Z,985.61
2018-04-25T06:30:28.293Z,985.64
2018-04-25T06:31:30.243Z,985.63
2018-04-25T06:32:28.849Z,985.61
2018-04-25T06:33:28.439Z,985.58
2018-04-25T06:34:27.271Z,985.56
2018-04-25T06:35:31.371Z,985.57
2018-04-25T06:36:31.861Z,985.57
2018-04-25T06:37:28.658Z,985.56
2018-04-25T06:38:28.281Z,985.56
2018-04-25T06:39:28.083Z,985.60
2018-04-25T06:40:28.190Z,985.58
2018-04-25T06:41:28.372Z,985.55
2018-04-25T06:42:28.628Z,985.52
2018-04-25T06:43:28.700Z,985.54
2018-04-25T06:44:28.877Z,985.58
2018-04-25T06:45:29.059Z,985.56
2018-04-25T06:46:29.248Z,985.57
2018-04-25T06:47:29.420Z,985.59
2018-04-25T06:48:29.594Z,985.56
2018-04-25T06:49:29.782Z,985.56
2018-04-25T06:50:29.956Z,985.57
2018-04-25T06:51:30.141Z,985.58
2018-04-25T06:52:30.321Z,985.53
2018-04-25T06:53:30.536Z,985.58
2018-04-25T06:54:30.681Z,985.59
2018-04-25T06:55:30.956Z,985.59
2018-04-25T06:56:31.026Z,985.58
2018-04-25T06:57:31.207Z,985.53
2018-04-25T06:58:31.387Z,985.45
2018-04-25T06:59:31.571Z,985.49
2018-04-25T07:00:31.750Z,985.54
2018-04-25T07:01:31.971Z,985.51
2018-04-25T07:02:32.154Z,985.48
2018-04-25T07:03:32.341Z,985.49
2018-04-25T07:04:32.606Z,985.57
2018-04-25T07:05:32.761Z,985.54
2018-04-25T07:06:32.930Z,985.50
2018-04-25T07:07:33.111Z,985.49
2018-04-25T07:08:33.295Z,985.53
2018-04-25T07:09:33.549Z,985.48
2018-04-25T07:10:33.691Z,985.50
2018-04-25T07:11:33.868Z,985.54
2018-04-25T07:12:34.048Z,985.57
2018-04-25T07:13:34.227Z,985.55
2018-04-25T07:14:34.414Z,985.58
2018-04-25T07:15:34.600Z,985.56
2018-04-25T07:16:34.784Z,985.53
2018-04-25T07:17:34.972Z,985.52
2018-04-25T07:18:35.150Z,985.54
2018-04-25T07:19:35.332Z,985.47
2018-04-25T07:20:36.436Z,985.55
2018-04-25T07:21:35.716Z,985.49
2018-04-25T07:22:35.902Z,985.55
2018-04-25T07:23:36.099Z,985.53
2018-04-25T07:24:36.260Z,985.56
2018-04-25T07:25:36.436Z,985.47
2018-04-25T07:26:36.613Z,985.60
2018-04-25T07:27:36.796Z,985.61
2018-04-25T07:28:37.126Z,985.61
2018-04-25T07:29:37.131Z,985.57
2018-04-25T07:30:37.290Z,985.63
2018-04-25T07:31:37.483Z,985.61
2018-04-25T07:32:37.670Z,985.62
2018-04-25T07:33:37.883Z,985.59
2018-04-25T07:34:38.074Z,985.61
2018-04-25T07:35:38.249Z,985.59
2018-04-25T07:36:38.449Z,985.57
2018-04-25T07:37:38.758Z,985.60
2018-04-25T07:38:38.870Z,985.63
2018-04-25T07:39:39.030Z,985.67
2018-04-25T07:40:39.212Z,985.64
2018-04-25T07:41:39.448Z,985.59
2018-04-25T07:42:39.583Z,985.64
2018-04-25T07:43:39.764Z,985.61
2018-04-25T07:44:39.947Z,985.62
2018-04-25T07:45:40.129Z,985.61
2018-04-25T07:46:40.310Z,985.65
2018-04-25T07:47:40.493Z,985.64
2018-04-25T07:48:40.682Z,985.63
2018-04-25T07:49:40.879Z,985.58
2018-04-25T07:50:41.052Z,985.60
2018-04-25T07:51:41.242Z,985.62
2018-04-25T07:52:41.431Z,985.62
2018-04-25T07:53:41.608Z,985.62
2018-04-25T07:54:41.786Z,985.62
2018-04-25T07:55:41.976Z,985.64
2018-04-25T07:56:42.161Z,985.62
2018-04-25T07:57:42.398Z,985.66
2018-04-25T07:58:42.529Z,985.64
2018-04-25T07:59:42.712Z,985.65
2018-04-25T08:00:43.374Z,985.71
2018-04-25T08:01:43.108Z,985.75
2018-04-25T08:02:43.163Z,985.74
2018-04-25T08:03:43.349Z,985.75
2018-04-25T08:04:43.535Z,985.75
2018-04-25T08:05:43.703Z,985.73
2018-04-25T08:06:43.893Z,985.83
2018-04-25T08:07:44.076Z,985.78
2018-04-25T08:08:44.258Z,985.77
2018-04-25T08:09:44.434Z,985.80
2018-04-25T08:10:44.611Z,985.80
2018-04-25T08:11:44.803Z,985.80
2018-04-25T08:12:44.975Z,985.78
2018-04-25T08:13:45.161Z,985.84
2018-04-25T08:14:45.343Z,985.93
2018-04-25T08:15:45.533Z,986.01
2018-04-25T08:16:45.708Z,985.92
2018-04-25T08:17:45.891Z,986.00
2018-04-25T08:18:46.072Z,986.14
2018-04-25T08:19:46.263Z,986.59
2018-04-25T08:20:46.532Z,986.04
2018-04-25T08:21:46.586Z,986.01
2018-04-25T08:22:46.767Z,986.38
2018-04-25T08:23:47.042Z,986.88
2018-04-25T08:24:47.152Z,986.16
2018-04-25T08:25:47.348Z,986.05
2018-04-25T08:26:47.535Z,986.91
2018-04-25T08:27:47.726Z,986.84
2018-04-25T08:28:47.905Z,987.02
2018-04-25T08:29:48.094Z,987.00
2018-04-25T08:30:48.285Z,987.01
2018-04-25T08:31:48.495Z,987.00
2018-04-25T08:32:48.709Z,987.01
2018-04-25T08:33:48.928Z,987.03
2018-04-25T08:34:49.117Z,987.04
2018-04-25T08:35:49.365Z,986.94
2018-04-25T08:36:49.431Z,986.93
2018-04-25T08:37:49.648Z,986.35
2018-04-25T08:38:49.845Z,987.11
2018-04-25T08:39:50.032Z,986.65
2018-04-25T08:40:50.227Z,986.50
2018-04-25T08:41:50.409Z,986.38
2018-04-25T08:42:50.601Z,986.28
2018-04-25T08:43:50.796Z,986.32
2018-04-25T08:44:51.076Z,986.29
2018-04-25T08:45:51.177Z,986.32
2018-04-25T08:46:51.371Z,986.29
2018-04-25T08:47:51.556Z,986.21
2018-04-25T08:48:51.864Z,986.18
2018-04-25T08:49:52.006Z,986.15
2018-04-25T08:50:52.096Z,986.17
2018-04-25T08:51:52.269Z,986.16
2018-04-25T08:52:52.462Z,986.18
2018-04-25T08:53:52.654Z,986.12
2018-04-25T08:54:52.838Z,986.16
2018-04-25T08:55:53.044Z,986.12
2018-04-25T08:56:53.795Z,986.22
2018-04-25T08:57:57.325Z,986.22
2018-04-25T08:58:54.112Z,986.15
2018-04-25T08:59:54.865Z,986.12
2018-04-25T09:00:55.544Z,986.18
2018-04-25T09:01:55.909Z,986.26
2018-04-25T09:02:56.306Z,986.25
2018-04-25T09:03:55.165Z,986.26
2018-04-25T09:04:57.356Z,986.40
2018-04-25T09:08:29.829Z,986.14
2018-04-25T09:09:30.171Z,986.15
2018-04-25T09:10:28.432Z,986.15
2018-04-25T09:11:28.653Z,986.20
2018-04-25T09:12:28.676Z,986.20
2018-04-25T09:13:30.747Z,986.27
2018-04-25T09:14:29.377Z,986.17
2018-04-25T09:15:29.121Z,986.17
2018-04-25T09:16:29.110Z,986.19
2018-04-25T09:17:29.716Z,986.16
2018-04-25T09:18:31.137Z,986.19
2018-04-25T09:19:30.389Z,986.22
2018-04-25T09:20:30.275Z,986.29
2018-04-25T09:21:31.615Z,986.31
2018-04-25T09:22:32.939Z,986.30
2018-04-25T09:23:30.439Z,986.34
2018-04-25T09:24:30.638Z,986.32
2018-04-25T09:25:31.967Z,986.33
2018-04-25T09:26:31.372Z,986.37
2018-04-25T09:27:31.218Z,986.31
2018-04-25T09:28:32.218Z,986.21
2018-04-25T09:29:32.006Z,986.13
2018-04-25T09:30:32.439Z,986.14
2018-04-25T09:31:33.545Z,986.19
2018-04-25T09:32:33.012Z,986.23
2018-04-25T09:33:33.041Z,986.08
2018-04-25T09:34:33.558Z,986.05
2018-04-25T09:35:34.142Z,986.11
2018-04-25T09:36:33.963Z,986.08
2018-04-25T09:37:32.710Z,986.04
2018-04-25T09:38:33.519Z,986.07
2018-04-25T09:39:33.360Z,986.10
2018-04-25T09:40:34.451Z,986.12
2018-04-25T09:41:34.321Z,986.17
2018-04-25T09:42:36.142Z,986.19
2018-04-25T09:43:35.095Z,986.17
2018-04-25T09:44:35.076Z,986.23
2018-04-25T09:45:35.062Z,986.21
2018-04-25T09:46:35.946Z,986.24
2018-04-25T09:47:35.476Z,986.23
2018-04-25T09:48:36.445Z,986.28
2018-04-25T09:49:35.529Z,986.34
2018-04-25T09:50:35.808Z,986.42
2018-04-25T09:51:36.322Z,986.43
2018-04-25T09:52:36.886Z,986.38
2018-04-25T09:53:38.069Z,986.43
2018-04-25T09:54:38.084Z,986.55
2018-04-25T09:55:35.868Z,986.51
2018-04-25T09:56:38.104Z,986.49
2018-04-25T09:57:36.078Z,986.47
2018-04-25T09:58:37.417Z,986.52
2018-04-25T09:59:36.230Z,986.51
2018-04-25T10:00:36.825Z,986.59
2018-04-25T10:01:37.785Z,986.58
2018-04-25T10:02:36.939Z,986.56
2018-04-25T10:03:38.032Z,986.47
2018-04-25T10:04:37.561Z,986.48
2018-04-25T10:05:39.699Z,986.32
2018-04-25T10:06:38.421Z,986.47
2018-04-25T10:07:37.229Z,986.67
2018-04-25T10:08:39.363Z,986.42
2018-04-25T10:09:39.976Z,986.66
2018-04-25T10:10:40.025Z,986.50
2018-04-25T10:11:40.370Z,986.91
2018-04-25T10:12:39.190Z,986.88
2018-04-25T10:13:39.733Z,986.56
2018-04-25T10:14:39.719Z,987.35
2018-04-25T10:15:38.793Z,987.47
2018-04-25T10:16:40.644Z,986.64
2018-04-25T10:17:40.692Z,986.57
2018-04-25T10:18:39.043Z,987.21
2018-04-25T10:19:40.816Z,986.65
2018-04-25T10:20:41.770Z,987.52
2018-04-25T10:21:41.838Z,986.73
2018-04-25T10:22:40.593Z,987.57
2018-04-25T10:23:40.171Z,986.50
2018-04-25T10:24:41.955Z,987.33
2018-04-25T10:25:43.205Z,987.36
2018-04-25T10:26:41.479Z,986.49
2018-04-25T10:27:42.463Z,987.07
2018-04-25T10:28:43.289Z,986.91
2018-04-25T10:29:44.281Z,986.49
2018-04-25T10:30:43.939Z,986.84
2018-04-25T10:31:44.404Z,986.55
2018-04-25T10:32:43.436Z,987.00
2018-04-25T10:33:43.039Z,986.44
2018-04-25T10:34:44.109Z,986.62
2018-04-25T10:35:43.877Z,986.99
2018-04-25T10:36:46.034Z,986.69
2018-04-25T10:37:44.386Z,987.26
2018-04-25T10:38:44.448Z,987.21
2018-04-25T10:39:43.134Z,986.44
2018-04-25T10:40:44.317Z,986.50
2018-04-25T10:41:45.626Z,986.32
2018-04-25T10:42:45.269Z,986.48
2018-04-25T10:43:46.693Z,986.67
2018-04-25T10:44:46.051Z,986.41
2018-04-25T10:45:45.752Z,986.29
2018-04-25T10:46:45.232Z,986.33
2018-04-25T10:47:44.168Z,986.25
2018-04-25T10:48:44.811Z,986.30
2018-04-25T10:49:48.159Z,986.40
2018-04-25T10:50:47.737Z,986.38
2018-04-25T10:51:46.987Z,986.40
2018-04-25T10:52:47.807Z,986.44
2018-04-25T10:53:46.376Z,986.43
2018-04-25T10:54:46.678Z,986.45
2018-04-25T10:55:48.333Z,986.41
2018-04-25T10:56:46.619Z,986.46
2018-04-25T10:57:48.076Z,986.44
2018-04-25T10:58:47.173Z,986.49
2018-04-25T10:59:46.163Z,986.47
2018-04-25T11:00:46.569Z,986.50
2018-04-25T11:01:46.458Z,986.50
2018-04-25T11:02:48.163Z,986.52
2018-04-25T11:03:46.926Z,986.60
2018-04-25T11:04:47.650Z,986.68
2018-04-25T11:05:48.426Z,986.80
2018-04-25T11:06:47.953Z,986.95
2018-04-25T11:07:49.376Z,986.91
2018-04-25T11:08:48.131Z,986.97
2018-04-25T11:09:47.922Z,987.00
2018-04-25T11:10:48.162Z,986.97
2018-04-25T11:11:48.799Z,987.12
2018-04-25T11:12:50.307Z,987.09
2018-04-25T11:13:48.812Z,987.04
2018-04-25T11:14:48.414Z,987.05
2018-04-25T11:15:48.706Z,987.09
2018-04-25T11:16:48.790Z,987.03
2018-04-25T11:17:48.641Z,986.92
2018-04-25T11:18:49.080Z,986.89
2018-04-25T11:19:49.231Z,986.88
2018-04-25T11:20:49.324Z,986.99
2018-04-25T11:21:49.500Z,986.99
2018-04-25T11:22:49.784Z,987.00
2018-04-25T11:23:49.774Z,987.00
2018-04-25T11:24:50.315Z,986.97
2018-04-25T11:25:50.147Z,986.96
2018-04-25T11:26:50.594Z,986.99
2018-04-25T11:27:50.539Z,987.01
2018-04-25T11:28:50.758Z,987.04
2018-04-25T11:29:50.731Z,987.05
2018-04-25T11:30:50.886Z,987.08
2018-04-25T11:31:51.613Z,987.15
2018-04-25T11:32:52.139Z,987.13
2018-04-25T11:33:51.951Z,987.12
2018-04-25T11:34:51.616Z,987.11
2018-04-25T11:35:51.817Z,987.20
2018-04-25T11:36:51.893Z,987.19
2018-04-25T11:37:52.085Z,987.24
2018-04-25T11:38:52.287Z,987.20
2018-04-25T11:39:52.466Z,987.19
2018-04-25T11:40:52.677Z,987.17
2018-04-25T11:41:52.888Z,987.14
2018-04-25T11:42:53.088Z,987.17
2018-04-25T11:43:53.288Z,987.17
2018-04-25T11:44:53.474Z,987.32
2018-04-25T11:45:53.674Z,987.24
2018-04-25T11:46:53.881Z,987.26
2018-04-25T11:47:54.074Z,987.22
2018-04-25T11:48:54.329Z,987.19
2018-04-25T11:49:54.400Z,987.20
2018-04-25T11:50:54.847Z,987.24
2018-04-25T11:51:54.769Z,987.21
2018-04-25T11:52:54.957Z,987.21
2018-04-25T11:53:55.545Z,987.16
2018-04-25T11:54:55.370Z,987.15
2018-04-25T11:55:56.343Z,987.13
2018-04-25T11:56:55.719Z,987.16
2018-04-25T11:57:55.911Z,987.13
2018-04-25T11:58:56.098Z,987.15
2018-04-25T11:59:56.288Z,987.17
2018-04-25T12:00:56.488Z,987.20
2018-04-25T12:01:56.669Z,987.24
2018-04-25T12:02:56.904Z,987.28
2018-04-25T12:03:57.034Z,987.29
2018-04-25T12:04:57.277Z,987.35
2018-04-25T12:05:57.405Z,987.31
2018-04-25T12:06:57.599Z,987.30
2018-04-25T12:07:57.808Z,987.38
2018-04-25T12:08:58.826Z,987.34
2018-04-25T12:09:58.125Z,987.46
2018-04-25T12:10:58.325Z,987.46
2018-04-25T12:11:58.519Z,987.42
2018-04-25T12:12:58.706Z,987.32
2018-04-25T12:13:58.940Z,987.31
2018-04-25T12:14:59.068Z,987.30
2018-04-25T12:15:59.159Z,987.34
2018-04-25T12:16:59.361Z,987.38
2018-04-25T12:18:00.704Z,987.40
2018-04-25T12:19:00.770Z,987.38
2018-04-25T12:19:59.823Z,987.35
2018-04-25T12:21:00.045Z,987.35
2018-04-25T12:22:00.187Z,987.41
2018-04-25T12:23:00.915Z,987.44
2018-04-25T12:24:00.591Z,987.38
2018-04-25T12:25:01.618Z,987.40
2018-04-25T12:26:00.808Z,987.37
2018-04-25T12:27:02.057Z,987.40
2018-04-25T12:28:01.199Z,987.41
2018-04-25T12:29:01.955Z,987.45
2018-04-25T12:30:01.370Z,987.37
2018-04-25T12:31:01.552Z,987.43
2018-04-25T12:32:01.735Z,987.46
2018-04-25T12:33:01.916Z,987.52